sensor_id;sensor_type;location;lat;lon;timestamp;temperature;humidity
23116;DHT22;11727;52.134;5.052;2022-07-17T00:01:34;15.30;99.90
23116;DHT22;11727;52.134;5.052;2022-07-17T00:04:00;15.20;99.90
23116;DHT22;11727;52.134;5.052;2022-07-17T00:06:26;15.30;99.90
23116;DHT22;11727;52.134;5.052;2022-07-17T00:08:51;15.20;99.90
23116;DHT22;11727;52.134;5.052;2022-07-17T00:11:17;15.10;99.90
23116;DHT22;11727;52.134;5.052;2022-07-17T00:13:42;15.20;99.90
23116;DHT22;11727;52.134;5.052;2022-07-17T00:16:09;15.10;99.90
23116;DHT22;11727;52.134;5.052;2022-07-17T00:18:35;15.10;99.90
23116;DHT22;11727;52.134;5.052;2022-07-17T00:21:01;15.10;99.90
23116;DHT22;11727;52.134;5.052;2022-07-17T00:23:26;15.10;99.90
23116;DHT22;11727;52.134;5.052;2022-07-17T00:25:54;15.10;99.90
23116;DHT22;11727;52.134;5.052;2022-07-17T00:28:20;15.10;99.90
23116;DHT22;11727;52.134;5.052;2022-07-17T00:30:45;15.00;99.90
23116;DHT22;11727;52.134;5.052;2022-07-17T00:33:11;15.00;99.90
23116;DHT22;11727;52.134;5.052;2022-07-17T00:35:37;15.00;99.90
23116;DHT22;11727;52.134;5.052;2022-07-17T00:38:02;15.00;99.90
23116;DHT22;11727;52.134;5.052;2022-07-17T00:40:28;14.90;99.90
23116;DHT22;11727;52.134;5.052;2022-07-17T00:42:54;14.90;99.90
23116;DHT22;11727;52.134;5.052;2022-07-17T00:45:20;15.00;99.90
23116;DHT22;11727;52.134;5.052;2022-07-17T00:48:09;15.00;99.90
23116;DHT22;11727;52.134;5.052;2022-07-17T00:50:39;15.00;99.90
23116;DHT22;11727;52.134;5.052;2022-07-17T00:53:06;14.90;99.90
23116;DHT22;11727;52.134;5.052;2022-07-17T00:55:32;14.90;99.90
23116;DHT22;11727;52.134;5.052;2022-07-17T00:58:01;14.90;99.90
23116;DHT22;11727;52.134;5.052;2022-07-17T01:00:28;14.90;99.90
23116;DHT22;11727;52.134;5.052;2022-07-17T01:02:57;14.90;99.90
23116;DHT22;11727;52.134;5.052;2022-07-17T01:05:23;14.90;99.90
23116;DHT22;11727;52.134;5.052;2022-07-17T01:07:50;14.80;99.90
23116;DHT22;11727;52.134;5.052;2022-07-17T01:10:17;14.90;99.90
23116;DHT22;11727;52.134;5.052;2022-07-17T01:12:45;14.80;99.90
23116;DHT22;11727;52.134;5.052;2022-07-17T01:15:12;14.80;99.90
23116;DHT22;11727;52.134;5.052;2022-07-17T01:17:38;14.80;99.90
23116;DHT22;11727;52.134;5.052;2022-07-17T01:20:06;14.80;99.90
23116;DHT22;11727;52.134;5.052;2022-07-17T01:22:32;14.80;99.90
23116;DHT22;11727;52.134;5.052;2022-07-17T01:25:04;14.70;99.90
23116;DHT22;11727;52.134;5.052;2022-07-17T01:27:30;14.70;99.90
23116;DHT22;11727;52.134;5.052;2022-07-17T01:29:58;14.70;99.90
23116;DHT22;11727;52.134;5.052;2022-07-17T01:32:32;14.70;99.90
23116;DHT22;11727;52.134;5.052;2022-07-17T01:34:58;14.70;99.90
23116;DHT22;11727;52.134;5.052;2022-07-17T01:37:23;14.70;99.90
23116;DHT22;11727;52.134;5.052;2022-07-17T01:39:49;14.70;99.90
23116;DHT22;11727;52.134;5.052;2022-07-17T01:42:22;14.70;99.90
23116;DHT22;11727;52.134;5.052;2022-07-17T01:44:47;14.70;99.90
23116;DHT22;11727;52.134;5.052;2022-07-17T01:47:14;14.70;99.90
23116;DHT22;11727;52.134;5.052;2022-07-17T01:49:47;14.70;99.90
23116;DHT22;11727;52.134;5.052;2022-07-17T01:52:13;14.60;99.90
23116;DHT22;11727;52.134;5.052;2022-07-17T01:54:39;14.70;99.90
23116;DHT22;11727;52.134;5.052;2022-07-17T01:57:05;14.60;99.90
23116;DHT22;11727;52.134;5.052;2022-07-17T01:59:31;14.60;99.90
23116;DHT22;11727;52.134;5.052;2022-07-17T02:01:56;14.60;99.90
23116;DHT22;11727;52.134;5.052;2022-07-17T02:04:22;14.50;99.90
23116;DHT22;11727;52.134;5.052;2022-07-17T02:06:47;14.60;99.90
23116;DHT22;11727;52.134;5.052;2022-07-17T02:09:13;14.50;99.90
23116;DHT22;11727;52.134;5.052;2022-07-17T02:11:39;14.50;99.90
23116;DHT22;11727;52.134;5.052;2022-07-17T02:14:04;14.50;99.90
23116;DHT22;11727;52.134;5.052;2022-07-17T02:16:30;14.50;99.90
23116;DHT22;11727;52.134;5.052;2022-07-17T02:18:56;14.50;99.90
23116;DHT22;11727;52.134;5.052;2022-07-17T02:21:21;14.50;99.90
23116;DHT22;11727;52.134;5.052;2022-07-17T02:23:47;14.50;99.90
23116;DHT22;11727;52.134;5.052;2022-07-17T02:26:12;14.50;99.90
23116;DHT22;11727;52.134;5.052;2022-07-17T02:28:38;14.50;99.90
23116;DHT22;11727;52.134;5.052;2022-07-17T02:31:04;14.50;99.90
23116;DHT22;11727;52.134;5.052;2022-07-17T02:33:29;14.40;99.90
23116;DHT22;11727;52.134;5.052;2022-07-17T02:35:55;14.50;99.90
23116;DHT22;11727;52.134;5.052;2022-07-17T02:38:20;14.40;99.90
23116;DHT22;11727;52.134;5.052;2022-07-17T02:40:46;14.40;99.90
23116;DHT22;11727;52.134;5.052;2022-07-17T02:43:12;14.40;99.90
23116;DHT22;11727;52.134;5.052;2022-07-17T02:45:37;14.40;99.90
23116;DHT22;11727;52.134;5.052;2022-07-17T02:48:03;14.30;99.90
23116;DHT22;11727;52.134;5.052;2022-07-17T02:50:29;14.30;99.90
23116;DHT22;11727;52.134;5.052;2022-07-17T02:52:54;14.30;99.90
23116;DHT22;11727;52.134;5.052;2022-07-17T02:55:20;14.30;99.90
23116;DHT22;11727;52.134;5.052;2022-07-17T02:57:45;14.30;99.90
23116;DHT22;11727;52.134;5.052;2022-07-17T03:00:16;14.30;99.90
23116;DHT22;11727;52.134;5.052;2022-07-17T03:02:43;14.30;99.90
23116;DHT22;11727;52.134;5.052;2022-07-17T03:05:09;14.30;99.90
23116;DHT22;11727;52.134;5.052;2022-07-17T03:07:35;14.30;99.90
23116;DHT22;11727;52.134;5.052;2022-07-17T03:10:01;14.20;99.90
23116;DHT22;11727;52.134;5.052;2022-07-17T03:12:27;14.20;99.90
23116;DHT22;11727;52.134;5.052;2022-07-17T03:14:53;14.20;99.90
23116;DHT22;11727;52.134;5.052;2022-07-17T03:17:18;14.20;99.90
23116;DHT22;11727;52.134;5.052;2022-07-17T03:19:44;14.10;99.90
23116;DHT22;11727;52.134;5.052;2022-07-17T03:22:09;14.10;99.90
23116;DHT22;11727;52.134;5.052;2022-07-17T03:24:35;14.10;99.90
23116;DHT22;11727;52.134;5.052;2022-07-17T03:27:01;14.10;99.90
23116;DHT22;11727;52.134;5.052;2022-07-17T03:29:26;14.00;99.90
23116;DHT22;11727;52.134;5.052;2022-07-17T03:31:52;14.00;99.90
23116;DHT22;11727;52.134;5.052;2022-07-17T03:34:18;14.00;99.90
23116;DHT22;11727;52.134;5.052;2022-07-17T03:36:43;14.00;99.90
23116;DHT22;11727;52.134;5.052;2022-07-17T03:39:09;14.00;99.90
23116;DHT22;11727;52.134;5.052;2022-07-17T03:41:35;13.90;99.90
23116;DHT22;11727;52.134;5.052;2022-07-17T03:44:00;13.90;99.90
23116;DHT22;11727;52.134;5.052;2022-07-17T03:46:26;13.90;99.90
23116;DHT22;11727;52.134;5.052;2022-07-17T03:48:52;13.90;99.90
23116;DHT22;11727;52.134;5.052;2022-07-17T03:51:18;13.90;99.90
23116;DHT22;11727;52.134;5.052;2022-07-17T03:53:43;13.90;99.90
23116;DHT22;11727;52.134;5.052;2022-07-17T03:56:09;13.90;99.90
23116;DHT22;11727;52.134;5.052;2022-07-17T03:58:35;13.90;99.90
23116;DHT22;11727;52.134;5.052;2022-07-17T04:01:01;13.90;99.90
23116;DHT22;11727;52.134;5.052;2022-07-17T04:03:27;13.90;99.90
23116;DHT22;11727;52.134;5.052;2022-07-17T04:05:52;13.90;99.90
23116;DHT22;11727;52.134;5.052;2022-07-17T04:08:18;13.90;99.90
23116;DHT22;11727;52.134;5.052;2022-07-17T04:10:44;13.90;99.90
23116;DHT22;11727;52.134;5.052;2022-07-17T04:13:10;13.80;99.90
23116;DHT22;11727;52.134;5.052;2022-07-17T04:15:38;13.80;99.90
23116;DHT22;11727;52.134;5.052;2022-07-17T04:18:24;13.80;99.90
23116;DHT22;11727;52.134;5.052;2022-07-17T04:20:55;13.90;99.90
23116;DHT22;11727;52.134;5.052;2022-07-17T04:23:21;13.90;99.90
23116;DHT22;11727;52.134;5.052;2022-07-17T04:25:46;13.90;99.90
23116;DHT22;11727;52.134;5.052;2022-07-17T04:28:12;13.80;99.90
23116;DHT22;11727;52.134;5.052;2022-07-17T04:30:38;13.80;99.90
23116;DHT22;11727;52.134;5.052;2022-07-17T04:33:04;13.90;99.90
23116;DHT22;11727;52.134;5.052;2022-07-17T04:35:30;13.90;99.90
23116;DHT22;11727;52.134;5.052;2022-07-17T04:37:56;13.90;99.90
23116;DHT22;11727;52.134;5.052;2022-07-17T04:40:22;13.90;99.90
23116;DHT22;11727;52.134;5.052;2022-07-17T04:42:48;13.90;99.90
23116;DHT22;11727;52.134;5.052;2022-07-17T04:45:14;13.90;99.90
23116;DHT22;11727;52.134;5.052;2022-07-17T04:47:40;13.90;99.90
23116;DHT22;11727;52.134;5.052;2022-07-17T04:50:07;14.00;99.90
23116;DHT22;11727;52.134;5.052;2022-07-17T04:52:33;14.00;99.90
23116;DHT22;11727;52.134;5.052;2022-07-17T04:54:58;14.00;99.90
23116;DHT22;11727;52.134;5.052;2022-07-17T04:57:24;14.10;99.90
23116;DHT22;11727;52.134;5.052;2022-07-17T04:59:50;14.10;99.90
23116;DHT22;11727;52.134;5.052;2022-07-17T05:02:15;14.10;99.90
23116;DHT22;11727;52.134;5.052;2022-07-17T05:04:41;14.20;99.90
23116;DHT22;11727;52.134;5.052;2022-07-17T05:07:07;14.20;99.90
23116;DHT22;11727;52.134;5.052;2022-07-17T05:09:32;14.20;99.90
23116;DHT22;11727;52.134;5.052;2022-07-17T05:11:58;14.30;99.90
23116;DHT22;11727;52.134;5.052;2022-07-17T05:14:23;14.40;99.90
23116;DHT22;11727;52.134;5.052;2022-07-17T05:16:49;14.50;99.90
23116;DHT22;11727;52.134;5.052;2022-07-17T05:19:15;14.50;99.90
23116;DHT22;11727;52.134;5.052;2022-07-17T05:21:41;14.60;99.90
23116;DHT22;11727;52.134;5.052;2022-07-17T05:24:07;14.70;99.90
23116;DHT22;11727;52.134;5.052;2022-07-17T05:26:33;14.80;99.90
23116;DHT22;11727;52.134;5.052;2022-07-17T05:28:58;14.90;99.90
23116;DHT22;11727;52.134;5.052;2022-07-17T05:31:24;15.00;99.90
23116;DHT22;11727;52.134;5.052;2022-07-17T05:33:49;15.10;99.90
23116;DHT22;11727;52.134;5.052;2022-07-17T05:36:15;15.20;99.90
23116;DHT22;11727;52.134;5.052;2022-07-17T05:38:41;15.20;99.90
23116;DHT22;11727;52.134;5.052;2022-07-17T05:41:07;15.30;99.90
23116;DHT22;11727;52.134;5.052;2022-07-17T05:43:32;15.40;99.90
23116;DHT22;11727;52.134;5.052;2022-07-17T05:45:58;15.40;99.90
23116;DHT22;11727;52.134;5.052;2022-07-17T05:48:25;15.50;99.90
23116;DHT22;11727;52.134;5.052;2022-07-17T05:50:51;15.50;99.90
23116;DHT22;11727;52.134;5.052;2022-07-17T05:53:17;15.60;99.90
23116;DHT22;11727;52.134;5.052;2022-07-17T05:55:43;15.70;99.90
23116;DHT22;11727;52.134;5.052;2022-07-17T05:58:09;15.80;99.90
23116;DHT22;11727;52.134;5.052;2022-07-17T06:00:36;15.90;99.90
23116;DHT22;11727;52.134;5.052;2022-07-17T06:03:02;16.00;99.90
23116;DHT22;11727;52.134;5.052;2022-07-17T06:05:28;16.10;99.90
23116;DHT22;11727;52.134;5.052;2022-07-17T06:07:55;16.30;99.90
23116;DHT22;11727;52.134;5.052;2022-07-17T06:10:21;16.40;99.90
23116;DHT22;11727;52.134;5.052;2022-07-17T06:12:47;16.50;99.90
23116;DHT22;11727;52.134;5.052;2022-07-17T06:15:13;16.60;99.90
23116;DHT22;11727;52.134;5.052;2022-07-17T06:17:39;16.80;99.90
23116;DHT22;11727;52.134;5.052;2022-07-17T06:20:05;16.90;99.90
23116;DHT22;11727;52.134;5.052;2022-07-17T06:22:31;17.00;99.90
23116;DHT22;11727;52.134;5.052;2022-07-17T06:24:57;17.10;99.90
23116;DHT22;11727;52.134;5.052;2022-07-17T06:27:22;17.30;99.90
23116;DHT22;11727;52.134;5.052;2022-07-17T06:29:49;17.40;99.90
23116;DHT22;11727;52.134;5.052;2022-07-17T06:32:14;17.60;99.90
23116;DHT22;11727;52.134;5.052;2022-07-17T06:34:40;17.70;99.90
23116;DHT22;11727;52.134;5.052;2022-07-17T06:37:06;17.90;99.90
23116;DHT22;11727;52.134;5.052;2022-07-17T06:39:32;18.00;99.90
23116;DHT22;11727;52.134;5.052;2022-07-17T06:41:57;18.10;99.90
23116;DHT22;11727;52.134;5.052;2022-07-17T06:44:23;18.30;99.90
23116;DHT22;11727;52.134;5.052;2022-07-17T06:46:49;18.40;99.90
23116;DHT22;11727;52.134;5.052;2022-07-17T06:49:15;18.60;99.90
23116;DHT22;11727;52.134;5.052;2022-07-17T06:51:41;18.70;99.90
23116;DHT22;11727;52.134;5.052;2022-07-17T06:54:07;18.80;99.90
23116;DHT22;11727;52.134;5.052;2022-07-17T06:56:33;18.90;99.90
23116;DHT22;11727;52.134;5.052;2022-07-17T06:58:58;19.00;99.90
23116;DHT22;11727;52.134;5.052;2022-07-17T07:01:24;19.10;99.90
23116;DHT22;11727;52.134;5.052;2022-07-17T07:03:50;19.20;99.90
23116;DHT22;11727;52.134;5.052;2022-07-17T07:06:18;19.30;99.90
23116;DHT22;11727;52.134;5.052;2022-07-17T07:08:44;19.40;99.90
23116;DHT22;11727;52.134;5.052;2022-07-17T07:11:09;19.40;99.90
23116;DHT22;11727;52.134;5.052;2022-07-17T07:13:35;19.50;99.90
23116;DHT22;11727;52.134;5.052;2022-07-17T07:16:01;19.60;99.90
23116;DHT22;11727;52.134;5.052;2022-07-17T07:18:27;19.60;99.90
23116;DHT22;11727;52.134;5.052;2022-07-17T07:20:53;19.70;99.90
23116;DHT22;11727;52.134;5.052;2022-07-17T07:23:18;19.90;99.90
23116;DHT22;11727;52.134;5.052;2022-07-17T07:25:44;19.90;99.90
23116;DHT22;11727;52.134;5.052;2022-07-17T07:28:10;20.00;99.90
23116;DHT22;11727;52.134;5.052;2022-07-17T07:30:35;20.00;99.90
23116;DHT22;11727;52.134;5.052;2022-07-17T07:33:01;20.20;99.90
23116;DHT22;11727;52.134;5.052;2022-07-17T07:35:30;20.30;99.90
23116;DHT22;11727;52.134;5.052;2022-07-17T07:37:55;20.40;99.90
23116;DHT22;11727;52.134;5.052;2022-07-17T07:40:21;20.50;99.90
23116;DHT22;11727;52.134;5.052;2022-07-17T07:42:49;20.60;99.90
23116;DHT22;11727;52.134;5.052;2022-07-17T07:45:15;20.70;99.90
23116;DHT22;11727;52.134;5.052;2022-07-17T07:47:48;20.70;99.90
23116;DHT22;11727;52.134;5.052;2022-07-17T07:50:16;20.80;99.90
23116;DHT22;11727;52.134;5.052;2022-07-17T07:52:41;20.90;99.90
23116;DHT22;11727;52.134;5.052;2022-07-17T07:55:08;21.00;99.90
23116;DHT22;11727;52.134;5.052;2022-07-17T07:57:35;21.00;99.90
23116;DHT22;11727;52.134;5.052;2022-07-17T08:00:00;21.20;99.90
23116;DHT22;11727;52.134;5.052;2022-07-17T08:02:26;21.20;99.90
23116;DHT22;11727;52.134;5.052;2022-07-17T08:04:51;21.20;99.90
23116;DHT22;11727;52.134;5.052;2022-07-17T08:07:17;21.20;99.90
23116;DHT22;11727;52.134;5.052;2022-07-17T08:09:43;21.40;99.90
23116;DHT22;11727;52.134;5.052;2022-07-17T08:12:08;21.40;99.90
23116;DHT22;11727;52.134;5.052;2022-07-17T08:14:34;21.40;99.90
23116;DHT22;11727;52.134;5.052;2022-07-17T08:16:59;21.50;99.90
23116;DHT22;11727;52.134;5.052;2022-07-17T08:19:25;21.50;99.90
23116;DHT22;11727;52.134;5.052;2022-07-17T08:21:50;21.60;99.90
23116;DHT22;11727;52.134;5.052;2022-07-17T08:24:16;21.70;99.90
23116;DHT22;11727;52.134;5.052;2022-07-17T08:26:43;21.80;99.90
23116;DHT22;11727;52.134;5.052;2022-07-17T08:29:08;21.90;99.90
23116;DHT22;11727;52.134;5.052;2022-07-17T08:31:34;22.00;99.90
23116;DHT22;11727;52.134;5.052;2022-07-17T08:33:59;22.00;99.90
23116;DHT22;11727;52.134;5.052;2022-07-17T08:36:25;22.10;99.90
23116;DHT22;11727;52.134;5.052;2022-07-17T08:38:51;22.10;99.90
23116;DHT22;11727;52.134;5.052;2022-07-17T08:41:17;22.20;99.90
23116;DHT22;11727;52.134;5.052;2022-07-17T08:43:43;22.30;99.90
23116;DHT22;11727;52.134;5.052;2022-07-17T08:46:12;22.40;99.90
23116;DHT22;11727;52.134;5.052;2022-07-17T08:48:40;22.50;99.90
23116;DHT22;11727;52.134;5.052;2022-07-17T08:51:10;22.70;99.90
23116;DHT22;11727;52.134;5.052;2022-07-17T08:53:37;22.70;99.90
23116;DHT22;11727;52.134;5.052;2022-07-17T08:56:03;22.70;99.90
23116;DHT22;11727;52.134;5.052;2022-07-17T08:58:29;22.60;99.90
23116;DHT22;11727;52.134;5.052;2022-07-17T09:00:55;22.60;99.90
23116;DHT22;11727;52.134;5.052;2022-07-17T09:03:21;22.70;99.90
23116;DHT22;11727;52.134;5.052;2022-07-17T09:05:49;22.80;99.90
23116;DHT22;11727;52.134;5.052;2022-07-17T09:08:20;22.80;99.90
23116;DHT22;11727;52.134;5.052;2022-07-17T09:10:48;22.90;99.90
23116;DHT22;11727;52.134;5.052;2022-07-17T09:15:39;22.80;99.90
23116;DHT22;11727;52.134;5.052;2022-07-17T09:18:05;22.90;99.90
23116;DHT22;11727;52.134;5.052;2022-07-17T09:20:30;23.10;99.90
23116;DHT22;11727;52.134;5.052;2022-07-17T09:23:03;23.20;99.90
23116;DHT22;11727;52.134;5.052;2022-07-17T09:25:42;23.20;99.90
23116;DHT22;11727;52.134;5.052;2022-07-17T09:28:10;23.20;99.90
23116;DHT22;11727;52.134;5.052;2022-07-17T09:30:39;23.30;99.90
23116;DHT22;11727;52.134;5.052;2022-07-17T09:33:15;23.40;99.90
23116;DHT22;11727;52.134;5.052;2022-07-17T09:36:09;23.50;99.90
23116;DHT22;11727;52.134;5.052;2022-07-17T09:38:37;23.40;99.90
23116;DHT22;11727;52.134;5.052;2022-07-17T09:41:09;23.60;99.90
23116;DHT22;11727;52.134;5.052;2022-07-17T09:43:46;23.60;99.90
23116;DHT22;11727;52.134;5.052;2022-07-17T09:46:13;23.70;99.90
23116;DHT22;11727;52.134;5.052;2022-07-17T09:48:42;23.70;99.90
23116;DHT22;11727;52.134;5.052;2022-07-17T09:53:46;23.80;99.90
23116;DHT22;11727;52.134;5.052;2022-07-17T09:56:15;23.90;99.90
23116;DHT22;11727;52.134;5.052;2022-07-17T09:58:43;24.00;99.90
23116;DHT22;11727;52.134;5.052;2022-07-17T10:01:10;24.00;99.90
23116;DHT22;11727;52.134;5.052;2022-07-17T10:03:36;24.20;99.90
23116;DHT22;11727;52.134;5.052;2022-07-17T10:06:02;24.30;99.90
23116;DHT22;11727;52.134;5.052;2022-07-17T10:08:31;24.40;99.90
23116;DHT22;11727;52.134;5.052;2022-07-17T10:10:58;24.40;99.90
23116;DHT22;11727;52.134;5.052;2022-07-17T10:13:24;24.40;99.90
23116;DHT22;11727;52.134;5.052;2022-07-17T10:15:50;24.40;99.90
23116;DHT22;11727;52.134;5.052;2022-07-17T10:18:16;24.50;99.90
23116;DHT22;11727;52.134;5.052;2022-07-17T10:20:42;24.50;99.90
23116;DHT22;11727;52.134;5.052;2022-07-17T10:23:14;24.60;99.90
23116;DHT22;11727;52.134;5.052;2022-07-17T10:25:40;24.70;99.90
23116;DHT22;11727;52.134;5.052;2022-07-17T10:28:06;24.60;99.90
23116;DHT22;11727;52.134;5.052;2022-07-17T10:30:33;24.70;99.90
23116;DHT22;11727;52.134;5.052;2022-07-17T10:33:04;24.70;99.90
23116;DHT22;11727;52.134;5.052;2022-07-17T10:35:47;24.80;99.90
23116;DHT22;11727;52.134;5.052;2022-07-17T10:38:15;24.90;99.90
23116;DHT22;11727;52.134;5.052;2022-07-17T10:40:41;24.80;99.90
23116;DHT22;11727;52.134;5.052;2022-07-17T10:43:08;24.80;99.90
23116;DHT22;11727;52.134;5.052;2022-07-17T10:45:42;24.90;99.90
23116;DHT22;11727;52.134;5.052;2022-07-17T10:48:12;24.90;99.90
23116;DHT22;11727;52.134;5.052;2022-07-17T10:50:47;25.10;99.90
23116;DHT22;11727;52.134;5.052;2022-07-17T10:53:27;25.10;99.90
23116;DHT22;11727;52.134;5.052;2022-07-17T10:55:55;25.10;99.90
23116;DHT22;11727;52.134;5.052;2022-07-17T10:58:26;25.10;99.90
23116;DHT22;11727;52.134;5.052;2022-07-17T11:03:44;25.00;99.90
23116;DHT22;11727;52.134;5.052;2022-07-17T11:06:25;25.10;99.90
23116;DHT22;11727;52.134;5.052;2022-07-17T11:09:03;25.00;99.90
23116;DHT22;11727;52.134;5.052;2022-07-17T11:11:47;25.00;99.90
23116;DHT22;11727;52.134;5.052;2022-07-17T11:14:16;25.10;99.90
23116;DHT22;11727;52.134;5.052;2022-07-17T11:16:49;25.10;99.90
23116;DHT22;11727;52.134;5.052;2022-07-17T11:19:31;25.20;99.90
23116;DHT22;11727;52.134;5.052;2022-07-17T11:22:02;25.30;99.90
23116;DHT22;11727;52.134;5.052;2022-07-17T11:24:40;25.40;99.90
23116;DHT22;11727;52.134;5.052;2022-07-17T11:27:06;25.60;99.90
23116;DHT22;11727;52.134;5.052;2022-07-17T11:29:39;25.60;99.90
23116;DHT22;11727;52.134;5.052;2022-07-17T11:32:05;25.70;99.90
23116;DHT22;11727;52.134;5.052;2022-07-17T11:34:31;25.70;99.90
23116;DHT22;11727;52.134;5.052;2022-07-17T11:37:05;25.60;99.90
23116;DHT22;11727;52.134;5.052;2022-07-17T11:39:41;25.70;99.90
23116;DHT22;11727;52.134;5.052;2022-07-17T11:42:10;25.60;99.90
23116;DHT22;11727;52.134;5.052;2022-07-17T11:44:36;25.50;99.90
23116;DHT22;11727;52.134;5.052;2022-07-17T11:47:02;25.50;99.90
23116;DHT22;11727;52.134;5.052;2022-07-17T11:49:33;25.60;99.90
23116;DHT22;11727;52.134;5.052;2022-07-17T11:52:13;25.60;99.90
23116;DHT22;11727;52.134;5.052;2022-07-17T11:54:47;25.70;99.90
23116;DHT22;11727;52.134;5.052;2022-07-17T11:57:14;25.80;99.90
23116;DHT22;11727;52.134;5.052;2022-07-17T11:59:40;26.00;99.90
23116;DHT22;11727;52.134;5.052;2022-07-17T12:02:29;26.00;99.90
23116;DHT22;11727;52.134;5.052;2022-07-17T12:04:58;26.20;99.90
23116;DHT22;11727;52.134;5.052;2022-07-17T12:07:38;26.30;99.90
23116;DHT22;11727;52.134;5.052;2022-07-17T12:10:19;26.30;99.90
23116;DHT22;11727;52.134;5.052;2022-07-17T12:13:00;26.20;99.90
23116;DHT22;11727;52.134;5.052;2022-07-17T12:15:42;26.20;99.90
23116;DHT22;11727;52.134;5.052;2022-07-17T12:18:23;26.20;99.90
23116;DHT22;11727;52.134;5.052;2022-07-17T12:20:51;26.30;99.90
23116;DHT22;11727;52.134;5.052;2022-07-17T12:23:37;26.40;99.90
23116;DHT22;11727;52.134;5.052;2022-07-17T12:26:08;26.50;99.90
23116;DHT22;11727;52.134;5.052;2022-07-17T12:28:35;26.70;99.90
23116;DHT22;11727;52.134;5.052;2022-07-17T12:31:01;26.60;99.90
23116;DHT22;11727;52.134;5.052;2022-07-17T12:33:27;26.50;99.90
23116;DHT22;11727;52.134;5.052;2022-07-17T12:35:52;26.40;99.90
23116;DHT22;11727;52.134;5.052;2022-07-17T12:38:18;26.30;99.90
23116;DHT22;11727;52.134;5.052;2022-07-17T12:40:44;26.30;99.90
23116;DHT22;11727;52.134;5.052;2022-07-17T12:43:09;26.20;99.90
23116;DHT22;11727;52.134;5.052;2022-07-17T12:45:35;26.20;99.90
23116;DHT22;11727;52.134;5.052;2022-07-17T12:48:01;26.30;99.90
23116;DHT22;11727;52.134;5.052;2022-07-17T12:50:27;26.20;99.90
23116;DHT22;11727;52.134;5.052;2022-07-17T12:52:52;26.30;99.90
23116;DHT22;11727;52.134;5.052;2022-07-17T12:55:18;26.30;99.90
23116;DHT22;11727;52.134;5.052;2022-07-17T12:57:44;26.30;99.90
23116;DHT22;11727;52.134;5.052;2022-07-17T13:00:11;26.40;99.90
23116;DHT22;11727;52.134;5.052;2022-07-17T13:02:37;26.40;99.90
23116;DHT22;11727;52.134;5.052;2022-07-17T13:05:02;26.50;99.90
23116;DHT22;11727;52.134;5.052;2022-07-17T13:07:28;26.40;99.90
23116;DHT22;11727;52.134;5.052;2022-07-17T13:09:54;26.50;99.90
23116;DHT22;11727;52.134;5.052;2022-07-17T13:12:21;26.70;99.90
23116;DHT22;11727;52.134;5.052;2022-07-17T13:14:46;26.70;99.90
23116;DHT22;11727;52.134;5.052;2022-07-17T13:17:12;26.80;99.90
23116;DHT22;11727;52.134;5.052;2022-07-17T13:19:37;26.80;99.90
23116;DHT22;11727;52.134;5.052;2022-07-17T13:22:03;26.80;99.90
23116;DHT22;11727;52.134;5.052;2022-07-17T13:24:30;26.80;99.90
23116;DHT22;11727;52.134;5.052;2022-07-17T13:26:55;26.80;99.90
23116;DHT22;11727;52.134;5.052;2022-07-17T13:29:21;26.90;99.90
23116;DHT22;11727;52.134;5.052;2022-07-17T13:31:47;26.80;99.90
23116;DHT22;11727;52.134;5.052;2022-07-17T13:34:13;26.70;99.90
23116;DHT22;11727;52.134;5.052;2022-07-17T13:36:38;26.70;99.90
23116;DHT22;11727;52.134;5.052;2022-07-17T13:39:04;26.70;99.90
23116;DHT22;11727;52.134;5.052;2022-07-17T13:41:30;26.70;99.90
23116;DHT22;11727;52.134;5.052;2022-07-17T13:43:56;26.70;99.90
23116;DHT22;11727;52.134;5.052;2022-07-17T13:46:22;26.60;99.90
23116;DHT22;11727;52.134;5.052;2022-07-17T13:48:48;26.70;99.90
23116;DHT22;11727;52.134;5.052;2022-07-17T13:51:14;26.70;99.90
23116;DHT22;11727;52.134;5.052;2022-07-17T13:53:39;26.70;99.90
23116;DHT22;11727;52.134;5.052;2022-07-17T13:56:05;26.80;99.90
23116;DHT22;11727;52.134;5.052;2022-07-17T13:58:31;26.80;99.90
23116;DHT22;11727;52.134;5.052;2022-07-17T14:00:58;26.70;99.90
23116;DHT22;11727;52.134;5.052;2022-07-17T14:03:24;26.70;99.90
23116;DHT22;11727;52.134;5.052;2022-07-17T14:05:49;26.80;99.90
23116;DHT22;11727;52.134;5.052;2022-07-17T14:08:15;26.80;99.90
23116;DHT22;11727;52.134;5.052;2022-07-17T14:10:41;26.90;99.90
23116;DHT22;11727;52.134;5.052;2022-07-17T14:13:07;26.90;99.90
23116;DHT22;11727;52.134;5.052;2022-07-17T14:15:32;26.90;99.90
23116;DHT22;11727;52.134;5.052;2022-07-17T14:17:58;26.80;99.90
23116;DHT22;11727;52.134;5.052;2022-07-17T14:20:24;26.80;99.90
23116;DHT22;11727;52.134;5.052;2022-07-17T14:22:49;26.90;99.90
23116;DHT22;11727;52.134;5.052;2022-07-17T14:25:15;26.80;99.90
23116;DHT22;11727;52.134;5.052;2022-07-17T14:27:40;26.80;99.90
23116;DHT22;11727;52.134;5.052;2022-07-17T14:30:07;26.90;99.90
23116;DHT22;11727;52.134;5.052;2022-07-17T14:32:32;26.90;99.90
23116;DHT22;11727;52.134;5.052;2022-07-17T14:34:58;27.10;99.90
23116;DHT22;11727;52.134;5.052;2022-07-17T14:37:23;27.10;99.90
23116;DHT22;11727;52.134;5.052;2022-07-17T14:39:51;27.10;99.90
23116;DHT22;11727;52.134;5.052;2022-07-17T14:42:16;27.00;99.90
23116;DHT22;11727;52.134;5.052;2022-07-17T14:44:43;27.00;99.90
23116;DHT22;11727;52.134;5.052;2022-07-17T14:47:08;26.90;99.90
23116;DHT22;11727;52.134;5.052;2022-07-17T14:49:34;26.90;99.90
23116;DHT22;11727;52.134;5.052;2022-07-17T14:52:00;26.90;99.90
23116;DHT22;11727;52.134;5.052;2022-07-17T14:54:25;26.90;99.90
23116;DHT22;11727;52.134;5.052;2022-07-17T14:56:52;26.80;99.90
23116;DHT22;11727;52.134;5.052;2022-07-17T14:59:18;26.90;99.90
23116;DHT22;11727;52.134;5.052;2022-07-17T15:01:44;26.90;99.90
23116;DHT22;11727;52.134;5.052;2022-07-17T15:04:10;26.80;99.90
23116;DHT22;11727;52.134;5.052;2022-07-17T15:06:38;26.80;99.90
23116;DHT22;11727;52.134;5.052;2022-07-17T15:09:05;26.80;99.90
23116;DHT22;11727;52.134;5.052;2022-07-17T15:11:30;26.90;99.90
23116;DHT22;11727;52.134;5.052;2022-07-17T15:13:56;26.90;99.90
23116;DHT22;11727;52.134;5.052;2022-07-17T15:16:22;26.90;99.90
23116;DHT22;11727;52.134;5.052;2022-07-17T15:18:47;26.80;99.90
23116;DHT22;11727;52.134;5.052;2022-07-17T15:21:13;26.70;99.90
23116;DHT22;11727;52.134;5.052;2022-07-17T15:23:39;26.70;99.90
23116;DHT22;11727;52.134;5.052;2022-07-17T15:26:07;26.70;99.90
23116;DHT22;11727;52.134;5.052;2022-07-17T15:28:33;26.70;99.90
23116;DHT22;11727;52.134;5.052;2022-07-17T15:30:58;26.70;99.90
23116;DHT22;11727;52.134;5.052;2022-07-17T15:33:24;26.70;99.90
23116;DHT22;11727;52.134;5.052;2022-07-17T15:35:50;26.60;99.90
23116;DHT22;11727;52.134;5.052;2022-07-17T15:38:15;26.50;99.90